Westville, Florida
Current Conditions -  °F | °C
As of 1:58 AM on Saturday 20 Dec 2014 (Local Time) from K1J0 Reporting Station
NA  
Wind Chill: 45°   Ceiling: NA
Heat Index: 47°   Visibility: 10mi
Dew Point: 46°   Wind: 5mph
Humidity: 97%   Direction: 30°NNE
Pressure: 30.11"   Gusts: NA
Location:  30.77°N, 85.85°W
Report Text: K1J0 200758Z AUTO 03004KT 10SM 08/08 A3011 RMK AO2 RAB0643B0606B0648 SLP181 P0003 T00830078 $
Loading
Personal Weather Stations






























Interactive Weather Map New forecast layout! Learn more

10-Day Weather Forecast

Advertisements
Track Severe Weather on mobile